sensor_id;sensor_type;location;lat;lon;timestamp;pressure;altitude;pressure_sealevel;temperature;humidity
19114;BME280;9689;51.052;13.772;2023-08-30T00:02:18;99496.47;;;13.63;97.45
19114;BME280;9689;51.052;13.772;2023-08-30T00:07:20;99519.91;;;13.66;96.95
19114;BME280;9689;51.052;13.772;2023-08-30T00:12:21;99516.88;;;13.75;97.12
19114;BME280;9689;51.052;13.772;2023-08-30T00:17:22;99527.25;;;13.77;97.31
19114;BME280;9689;51.052;13.772;2023-08-30T00:22:24;99522.53;;;13.85;96.63
19114;BME280;9689;51.052;13.772;2023-08-30T00:27:27;99516.88;;;13.94;96.64
19114;BME280;9689;51.052;13.772;2023-08-30T00:32:27;99519.22;;;14.00;95.64
19114;BME280;9689;51.052;13.772;2023-08-30T00:37:30;99527.59;;;14.07;95.16
19114;BME280;9689;51.052;13.772;2023-08-30T00:42:30;99530.19;;;14.08;95.10
19114;BME280;9689;51.052;13.772;2023-08-30T00:47:31;99525.28;;;14.01;94.72
19114;BME280;9689;51.052;13.772;2023-08-30T00:52:34;99533.13;;;14.20;94.80
19114;BME280;9689;51.052;13.772;2023-08-30T00:57:36;99533.66;;;14.09;94.63
19114;BME280;9689;51.052;13.772;2023-08-30T01:02:37;99545.31;;;14.21;94.17
19114;BME280;9689;51.052;13.772;2023-08-30T01:07:40;99534.00;;;14.20;93.57
19114;BME280;9689;51.052;13.772;2023-08-30T01:12:44;99528.47;;;14.26;93.39
19114;BME280;9689;51.052;13.772;2023-08-30T01:17:47;99523.16;;;14.28;92.54
19114;BME280;9689;51.052;13.772;2023-08-30T01:22:58;99531.22;;;14.23;93.15
19114;BME280;9689;51.052;13.772;2023-08-30T01:28:04;99527.63;;;14.26;92.60
19114;BME280;9689;51.052;13.772;2023-08-30T01:33:07;99519.31;;;14.35;92.49
19114;BME280;9689;51.052;13.772;2023-08-30T01:38:09;99518.06;;;14.25;92.61
19114;BME280;9689;51.052;13.772;2023-08-30T01:43:12;99512.53;;;14.12;92.70
19114;BME280;9689;51.052;13.772;2023-08-30T01:48:15;99500.19;;;14.14;93.08
19114;BME280;9689;51.052;13.772;2023-08-30T01:53:17;99498.31;;;14.18;93.25
19114;BME280;9689;51.052;13.772;2023-08-30T01:58:21;99495.25;;;14.27;92.58
19114;BME280;9689;51.052;13.772;2023-08-30T02:03:22;99489.25;;;14.25;92.67
19114;BME280;9689;51.052;13.772;2023-08-30T02:08:25;99487.66;;;14.21;91.90
19114;BME280;9689;51.052;13.772;2023-08-30T02:13:30;99482.06;;;14.28;91.94
19114;BME280;9689;51.052;13.772;2023-08-30T02:18:31;99488.47;;;14.40;91.48
19114;BME280;9689;51.052;13.772;2023-08-30T02:23:33;99497.34;;;14.37;90.41
19114;BME280;9689;51.052;13.772;2023-08-30T02:28:36;99502.66;;;14.36;90.79
19114;BME280;9689;51.052;13.772;2023-08-30T02:33:38;99516.78;;;14.33;89.52
19114;BME280;9689;51.052;13.772;2023-08-30T02:38:39;99514.47;;;14.45;89.28
19114;BME280;9689;51.052;13.772;2023-08-30T02:43:41;99505.25;;;14.19;89.81
19114;BME280;9689;51.052;13.772;2023-08-30T02:48:42;99505.50;;;14.31;89.61
19114;BME280;9689;51.052;13.772;2023-08-30T02:53:43;99504.50;;;14.34;89.31
19114;BME280;9689;51.052;13.772;2023-08-30T02:58:45;99501.25;;;14.29;89.31
19114;BME280;9689;51.052;13.772;2023-08-30T03:03:46;99495.75;;;14.16;91.10
19114;BME280;9689;51.052;13.772;2023-08-30T03:08:50;99515.31;;;14.09;91.38
19114;BME280;9689;51.052;13.772;2023-08-30T03:13:53;99521.47;;;14.08;91.65
19114;BME280;9689;51.052;13.772;2023-08-30T03:18:54;99511.94;;;14.24;91.05
19114;BME280;9689;51.052;13.772;2023-08-30T03:23:55;99513.66;;;14.25;90.22
19114;BME280;9689;51.052;13.772;2023-08-30T03:28:57;99511.31;;;14.19;89.79
19114;BME280;9689;51.052;13.772;2023-08-30T03:33:59;99504.53;;;14.15;89.68
19114;BME280;9689;51.052;13.772;2023-08-30T03:39:01;99509.47;;;14.21;90.05
19114;BME280;9689;51.052;13.772;2023-08-30T03:44:04;99512.19;;;14.20;89.82
19114;BME280;9689;51.052;13.772;2023-08-30T03:49:04;99522.09;;;14.13;89.57
19114;BME280;9689;51.052;13.772;2023-08-30T03:54:05;99508.72;;;14.19;88.97
19114;BME280;9689;51.052;13.772;2023-08-30T03:59:09;99513.50;;;14.28;89.02
19114;BME280;9689;51.052;13.772;2023-08-30T04:04:11;99510.28;;;14.40;88.67
19114;BME280;9689;51.052;13.772;2023-08-30T04:09:11;99507.81;;;14.37;87.27
19114;BME280;9689;51.052;13.772;2023-08-30T04:14:13;99507.06;;;14.35;87.67
19114;BME280;9689;51.052;13.772;2023-08-30T04:19:15;99509.22;;;14.45;87.45
19114;BME280;9689;51.052;13.772;2023-08-30T04:24:16;99504.88;;;14.45;86.92
19114;BME280;9689;51.052;13.772;2023-08-30T04:29:18;99510.44;;;14.56;86.79
19114;BME280;9689;51.052;13.772;2023-08-30T04:34:19;99499.34;;;14.51;86.00
19114;BME280;9689;51.052;13.772;2023-08-30T04:39:20;99509.34;;;14.41;86.88
19114;BME280;9689;51.052;13.772;2023-08-30T04:44:22;99513.38;;;14.67;88.30
19114;BME280;9689;51.052;13.772;2023-08-30T04:49:24;99509.38;;;14.60;86.62
19114;BME280;9689;51.052;13.772;2023-08-30T04:54:25;99516.31;;;14.79;86.06
19114;BME280;9689;51.052;13.772;2023-08-30T04:59:27;99529.53;;;14.94;85.30
19114;BME280;9689;51.052;13.772;2023-08-30T05:04:28;99533.97;;;14.92;84.00
19114;BME280;9689;51.052;13.772;2023-08-30T05:09:29;99532.16;;;14.77;84.63
19114;BME280;9689;51.052;13.772;2023-08-30T05:14:33;99538.25;;;14.78;83.64
19114;BME280;9689;51.052;13.772;2023-08-30T05:19:34;99536.28;;;14.81;84.26
19114;BME280;9689;51.052;13.772;2023-08-30T05:24:36;99523.56;;;14.91;83.94
19114;BME280;9689;51.052;13.772;2023-08-30T05:29:39;99533.47;;;14.86;83.97
19114;BME280;9689;51.052;13.772;2023-08-30T05:34:40;99531.06;;;14.98;83.68
19114;BME280;9689;51.052;13.772;2023-08-30T05:39:56;99526.94;;;15.10;81.64
19114;BME280;9689;51.052;13.772;2023-08-30T05:44:58;99533.22;;;15.08;81.53
19114;BME280;9689;51.052;13.772;2023-08-30T05:49:59;99538.75;;;15.02;81.90
19114;BME280;9689;51.052;13.772;2023-08-30T05:55:00;99531.59;;;15.05;81.48
19114;BME280;9689;51.052;13.772;2023-08-30T06:00:03;99531.50;;;15.24;80.90
19114;BME280;9689;51.052;13.772;2023-08-30T06:05:12;99521.75;;;15.43;80.18
19114;BME280;9689;51.052;13.772;2023-08-30T06:10:12;99528.59;;;15.46;79.66
19114;BME280;9689;51.052;13.772;2023-08-30T06:15:15;99515.91;;;15.54;80.09
19114;BME280;9689;51.052;13.772;2023-08-30T06:20:16;99514.69;;;15.61;79.56
19114;BME280;9689;51.052;13.772;2023-08-30T06:25:17;99521.72;;;15.61;79.32
19114;BME280;9689;51.052;13.772;2023-08-30T06:30:19;99521.16;;;15.71;78.96
19114;BME280;9689;51.052;13.772;2023-08-30T06:35:19;99522.94;;;15.53;78.22
19114;BME280;9689;51.052;13.772;2023-08-30T06:40:20;99527.44;;;15.51;78.46
19114;BME280;9689;51.052;13.772;2023-08-30T06:45:22;99531.38;;;15.60;78.67
19114;BME280;9689;51.052;13.772;2023-08-30T06:50:23;99529.81;;;15.73;78.67
19114;BME280;9689;51.052;13.772;2023-08-30T06:55:24;99525.09;;;15.96;78.54
19114;BME280;9689;51.052;13.772;2023-08-30T07:00:26;99525.84;;;16.14;77.16
19114;BME280;9689;51.052;13.772;2023-08-30T07:05:27;99527.78;;;16.42;76.52
19114;BME280;9689;51.052;13.772;2023-08-30T07:10:29;99525.00;;;16.45;75.57
19114;BME280;9689;51.052;13.772;2023-08-30T07:15:32;99535.34;;;16.48;75.54
19114;BME280;9689;51.052;13.772;2023-08-30T07:20:33;99535.56;;;16.59;75.39
19114;BME280;9689;51.052;13.772;2023-08-30T07:25:34;99530.59;;;16.54;75.47
19114;BME280;9689;51.052;13.772;2023-08-30T07:30:37;99530.50;;;16.72;75.33
19114;BME280;9689;51.052;13.772;2023-08-30T07:35:38;99531.16;;;16.75;75.22
19114;BME280;9689;51.052;13.772;2023-08-30T07:40:40;99533.53;;;16.64;75.84
19114;BME280;9689;51.052;13.772;2023-08-30T07:45:42;99531.16;;;16.75;75.36
19114;BME280;9689;51.052;13.772;2023-08-30T07:50:43;99535.41;;;17.08;74.43
19114;BME280;9689;51.052;13.772;2023-08-30T07:55:48;99538.53;;;17.29;73.85
19114;BME280;9689;51.052;13.772;2023-08-30T08:00:51;99541.84;;;17.32;72.13
19114;BME280;9689;51.052;13.772;2023-08-30T08:05:52;99541.66;;;17.35;71.96
19114;BME280;9689;51.052;13.772;2023-08-30T08:10:53;99542.38;;;17.09;71.98
19114;BME280;9689;51.052;13.772;2023-08-30T08:15:56;99538.31;;;17.03;72.52
19114;BME280;9689;51.052;13.772;2023-08-30T08:20:57;99535.72;;;17.17;72.17
19114;BME280;9689;51.052;13.772;2023-08-30T08:25:58;99530.97;;;17.38;71.72
19114;BME280;9689;51.052;13.772;2023-08-30T08:31:00;99518.19;;;17.46;70.55
19114;BME280;9689;51.052;13.772;2023-08-30T08:36:02;99518.25;;;17.59;69.87
19114;BME280;9689;51.052;13.772;2023-08-30T08:41:05;99505.19;;;17.58;69.17
19114;BME280;9689;51.052;13.772;2023-08-30T08:46:09;99500.66;;;17.60;69.83
19114;BME280;9689;51.052;13.772;2023-08-30T08:51:11;99501.41;;;17.62;69.07
19114;BME280;9689;51.052;13.772;2023-08-30T08:56:12;99491.75;;;17.76;68.34
19114;BME280;9689;51.052;13.772;2023-08-30T09:01:15;99494.75;;;17.85;67.79
19114;BME280;9689;51.052;13.772;2023-08-30T09:06:33;99501.63;;;18.28;67.71
19114;BME280;9689;51.052;13.772;2023-08-30T09:11:34;99506.91;;;18.14;67.13
19114;BME280;9689;51.052;13.772;2023-08-30T09:16:57;99502.47;;;18.29;65.41
19114;BME280;9689;51.052;13.772;2023-08-30T09:22:00;99499.13;;;19.06;63.40
19114;BME280;9689;51.052;13.772;2023-08-30T09:27:03;99487.28;;;18.99;62.30
19114;BME280;9689;51.052;13.772;2023-08-30T09:32:07;99491.72;;;19.24;62.15
19114;BME280;9689;51.052;13.772;2023-08-30T09:37:19;99497.50;;;18.91;64.49
19114;BME280;9689;51.052;13.772;2023-08-30T09:42:20;99500.16;;;18.91;63.87
19114;BME280;9689;51.052;13.772;2023-08-30T09:47:23;99502.91;;;19.02;64.74
19114;BME280;9689;51.052;13.772;2023-08-30T09:52:25;99493.72;;;20.21;59.56
19114;BME280;9689;51.052;13.772;2023-08-30T09:57:26;99492.06;;;20.44;58.94
19114;BME280;9689;51.052;13.772;2023-08-30T10:02:29;99494.44;;;19.99;59.86
19114;BME280;9689;51.052;13.772;2023-08-30T10:07:32;99478.94;;;20.42;57.68
19114;BME280;9689;51.052;13.772;2023-08-30T10:12:33;99481.97;;;20.49;57.30
19114;BME280;9689;51.052;13.772;2023-08-30T10:17:38;99479.97;;;20.52;57.81
19114;BME280;9689;51.052;13.772;2023-08-30T10:22:42;99476.06;;;20.45;56.47
19114;BME280;9689;51.052;13.772;2023-08-30T10:27:46;99476.31;;;20.05;57.65
19114;BME280;9689;51.052;13.772;2023-08-30T10:32:49;99476.28;;;20.42;57.72
19114;BME280;9689;51.052;13.772;2023-08-30T10:37:53;99474.59;;;20.65;56.40
19114;BME280;9689;51.052;13.772;2023-08-30T10:43:01;99478.22;;;21.22;54.56
19114;BME280;9689;51.052;13.772;2023-08-30T10:48:05;99487.69;;;20.67;54.72
19114;BME280;9689;51.052;13.772;2023-08-30T10:53:12;99483.28;;;21.13;53.47
19114;BME280;9689;51.052;13.772;2023-08-30T10:58:13;99488.97;;;21.20;52.57
19114;BME280;9689;51.052;13.772;2023-08-30T11:03:16;99486.50;;;20.95;52.05
19114;BME280;9689;51.052;13.772;2023-08-30T11:08:17;99486.72;;;21.49;49.30
19114;BME280;9689;51.052;13.772;2023-08-30T11:13:18;99484.03;;;20.80;51.52
19114;BME280;9689;51.052;13.772;2023-08-30T11:18:22;99478.44;;;21.18;50.69
19114;BME280;9689;51.052;13.772;2023-08-30T11:23:23;99480.38;;;21.16;52.67
19114;BME280;9689;51.052;13.772;2023-08-30T11:28:24;99466.47;;;21.82;50.08
19114;BME280;9689;51.052;13.772;2023-08-30T11:33:26;99459.34;;;21.71;49.62
19114;BME280;9689;51.052;13.772;2023-08-30T11:38:27;99459.97;;;21.63;50.11
19114;BME280;9689;51.052;13.772;2023-08-30T11:43:28;99461.16;;;21.59;47.45
19114;BME280;9689;51.052;13.772;2023-08-30T11:48:30;99456.84;;;21.47;45.40
19114;BME280;9689;51.052;13.772;2023-08-30T11:53:32;99460.72;;;20.85;48.75
19114;BME280;9689;51.052;13.772;2023-08-30T11:58:33;99446.38;;;20.88;50.41
19114;BME280;9689;51.052;13.772;2023-08-30T12:03:35;99457.63;;;21.14;52.12
19114;BME280;9689;51.052;13.772;2023-08-30T12:08:36;99442.59;;;21.59;51.89
19114;BME280;9689;51.052;13.772;2023-08-30T12:13:37;99425.94;;;21.80;49.66
19114;BME280;9689;51.052;13.772;2023-08-30T12:18:39;99419.66;;;21.92;47.29
19114;BME280;9689;51.052;13.772;2023-08-30T12:23:40;99415.56;;;21.88;47.07
19114;BME280;9689;51.052;13.772;2023-08-30T12:28:42;99414.59;;;21.10;47.01
19114;BME280;9689;51.052;13.772;2023-08-30T12:33:45;99409.63;;;20.72;48.33
19114;BME280;9689;51.052;13.772;2023-08-30T12:38:46;99414.72;;;21.09;47.66
19114;BME280;9689;51.052;13.772;2023-08-30T12:43:47;99410.78;;;21.37;46.21
19114;BME280;9689;51.052;13.772;2023-08-30T12:48:49;99401.00;;;22.25;45.68
19114;BME280;9689;51.052;13.772;2023-08-30T12:53:50;99401.25;;;22.22;47.54
19114;BME280;9689;51.052;13.772;2023-08-30T12:58:50;99401.31;;;21.89;46.16
19114;BME280;9689;51.052;13.772;2023-08-30T13:03:53;99404.66;;;22.13;45.10
19114;BME280;9689;51.052;13.772;2023-08-30T13:08:54;99398.19;;;21.95;44.59
19114;BME280;9689;51.052;13.772;2023-08-30T13:13:54;99394.97;;;21.69;45.97
19114;BME280;9689;51.052;13.772;2023-08-30T13:18:58;99398.50;;;21.36;46.47
19114;BME280;9689;51.052;13.772;2023-08-30T13:23:59;99389.44;;;21.72;46.21
19114;BME280;9689;51.052;13.772;2023-08-30T13:29:00;99389.53;;;21.82;45.25
19114;BME280;9689;51.052;13.772;2023-08-30T13:34:03;99388.59;;;22.15;44.70
19114;BME280;9689;51.052;13.772;2023-08-30T13:39:04;99380.78;;;22.02;44.42
19114;BME280;9689;51.052;13.772;2023-08-30T13:44:05;99379.25;;;21.34;46.70
19114;BME280;9689;51.052;13.772;2023-08-30T13:49:07;99375.75;;;21.33;45.36
19114;BME280;9689;51.052;13.772;2023-08-30T13:54:08;99375.72;;;20.88;46.37
19114;BME280;9689;51.052;13.772;2023-08-30T13:59:09;99371.75;;;20.94;46.48
19114;BME280;9689;51.052;13.772;2023-08-30T14:04:11;99363.19;;;21.58;44.82
19114;BME280;9689;51.052;13.772;2023-08-30T14:09:12;99362.97;;;21.50;44.75
19114;BME280;9689;51.052;13.772;2023-08-30T14:14:13;99361.88;;;21.63;43.82
19114;BME280;9689;51.052;13.772;2023-08-30T14:19:16;99362.72;;;21.96;43.13
19114;BME280;9689;51.052;13.772;2023-08-30T14:24:17;99343.78;;;22.53;43.22
19114;BME280;9689;51.052;13.772;2023-08-30T14:29:20;99346.03;;;22.37;42.06
19114;BME280;9689;51.052;13.772;2023-08-30T14:34:22;99347.94;;;22.25;43.12
19114;BME280;9689;51.052;13.772;2023-08-30T14:39:23;99339.97;;;22.25;42.34
19114;BME280;9689;51.052;13.772;2023-08-30T14:44:24;99340.75;;;22.16;42.57
19114;BME280;9689;51.052;13.772;2023-08-30T14:49:27;99343.56;;;21.92;43.45
19114;BME280;9689;51.052;13.772;2023-08-30T14:54:27;99343.22;;;21.42;44.83
19114;BME280;9689;51.052;13.772;2023-08-30T14:59:28;99340.34;;;21.12;45.58
19114;BME280;9689;51.052;13.772;2023-08-30T15:04:30;99340.56;;;21.09;46.23
19114;BME280;9689;51.052;13.772;2023-08-30T15:09:31;99337.53;;;21.02;45.68
19114;BME280;9689;51.052;13.772;2023-08-30T15:14:32;99344.19;;;20.85;46.94
19114;BME280;9689;51.052;13.772;2023-08-30T15:19:35;99352.25;;;20.95;46.84
19114;BME280;9689;51.052;13.772;2023-08-30T15:24:36;99345.72;;;21.10;45.62
19114;BME280;9689;51.052;13.772;2023-08-30T15:29:37;99355.25;;;21.24;44.69
19114;BME280;9689;51.052;13.772;2023-08-30T15:34:39;99356.94;;;21.48;44.52
19114;BME280;9689;51.052;13.772;2023-08-30T15:39:40;99351.75;;;21.57;44.31
19114;BME280;9689;51.052;13.772;2023-08-30T15:44:41;99349.50;;;21.85;43.40
19114;BME280;9689;51.052;13.772;2023-08-30T15:49:43;99345.91;;;22.39;42.69
19114;BME280;9689;51.052;13.772;2023-08-30T15:54:44;99347.34;;;22.84;43.91
19114;BME280;9689;51.052;13.772;2023-08-30T15:59:45;99345.38;;;22.66;46.50
19114;BME280;9689;51.052;13.772;2023-08-30T16:04:47;99355.69;;;22.06;49.05
19114;BME280;9689;51.052;13.772;2023-08-30T16:09:48;99358.25;;;21.53;50.36
19114;BME280;9689;51.052;13.772;2023-08-30T16:14:49;99354.06;;;21.28;51.81
19114;BME280;9689;51.052;13.772;2023-08-30T16:19:51;99358.00;;;21.00;52.16
19114;BME280;9689;51.052;13.772;2023-08-30T16:24:51;99356.66;;;20.83;52.29
19114;BME280;9689;51.052;13.772;2023-08-30T16:29:52;99357.63;;;20.71;53.26
19114;BME280;9689;51.052;13.772;2023-08-30T16:34:54;99364.72;;;20.59;54.51
19114;BME280;9689;51.052;13.772;2023-08-30T16:39:55;99360.75;;;20.41;55.73
19114;BME280;9689;51.052;13.772;2023-08-30T16:44:56;99364.59;;;20.26;56.22
19114;BME280;9689;51.052;13.772;2023-08-30T16:49:59;99361.59;;;20.07;56.81
19114;BME280;9689;51.052;13.772;2023-08-30T16:55:00;99355.03;;;19.88;58.25
19114;BME280;9689;51.052;13.772;2023-08-30T17:00:01;99357.03;;;19.73;59.76
19114;BME280;9689;51.052;13.772;2023-08-30T17:05:06;99363.59;;;19.55;60.92
19114;BME280;9689;51.052;13.772;2023-08-30T17:10:08;99357.94;;;19.36;60.76
19114;BME280;9689;51.052;13.772;2023-08-30T17:15:09;99363.97;;;19.25;61.39
19114;BME280;9689;51.052;13.772;2023-08-30T17:20:12;99359.13;;;19.19;61.37
19114;BME280;9689;51.052;13.772;2023-08-30T17:25:13;99360.31;;;19.02;62.14
19114;BME280;9689;51.052;13.772;2023-08-30T17:30:14;99358.53;;;18.90;63.14
19114;BME280;9689;51.052;13.772;2023-08-30T17:35:17;99366.88;;;18.84;63.34
19114;BME280;9689;51.052;13.772;2023-08-30T17:40:18;99369.75;;;18.68;64.02
19114;BME280;9689;51.052;13.772;2023-08-30T17:45:20;99369.56;;;18.57;64.39
19114;BME280;9689;51.052;13.772;2023-08-30T17:50:22;99369.34;;;18.47;65.11
19114;BME280;9689;51.052;13.772;2023-08-30T17:55:22;99375.22;;;18.25;66.19
19114;BME280;9689;51.052;13.772;2023-08-30T18:00:23;99381.63;;;18.08;67.21
19114;BME280;9689;51.052;13.772;2023-08-30T18:05:25;99376.69;;;17.90;68.82
19114;BME280;9689;51.052;13.772;2023-08-30T18:10:29;99390.44;;;17.80;69.31
19114;BME280;9689;51.052;13.772;2023-08-30T18:15:30;99396.88;;;17.62;70.16
19114;BME280;9689;51.052;13.772;2023-08-30T18:20:32;99391.75;;;17.46;70.88
19114;BME280;9689;51.052;13.772;2023-08-30T18:25:33;99391.75;;;17.32;72.46
19114;BME280;9689;51.052;13.772;2023-08-30T18:30:35;99401.44;;;17.03;74.04
19114;BME280;9689;51.052;13.772;2023-08-30T18:35:37;99395.22;;;16.90;74.62
19114;BME280;9689;51.052;13.772;2023-08-30T18:40:38;99400.19;;;16.80;75.38
19114;BME280;9689;51.052;13.772;2023-08-30T18:45:44;99403.91;;;16.62;76.41
19114;BME280;9689;51.052;13.772;2023-08-30T18:50:47;99408.56;;;16.57;76.83
19114;BME280;9689;51.052;13.772;2023-08-30T18:55:47;99412.19;;;16.40;77.30
19114;BME280;9689;51.052;13.772;2023-08-30T19:00:49;99419.22;;;16.39;78.12
19114;BME280;9689;51.052;13.772;2023-08-30T19:05:51;99428.94;;;16.23;78.76
19114;BME280;9689;51.052;13.772;2023-08-30T19:10:53;99423.09;;;16.18;78.94
19114;BME280;9689;51.052;13.772;2023-08-30T19:15:54;99416.16;;;16.01;79.99
19114;BME280;9689;51.052;13.772;2023-08-30T19:20:57;99424.06;;;16.01;79.99
19114;BME280;9689;51.052;13.772;2023-08-30T19:25:58;99429.81;;;15.76;81.18
19114;BME280;9689;51.052;13.772;2023-08-30T19:31:00;99418.66;;;15.73;81.96
19114;BME280;9689;51.052;13.772;2023-08-30T19:36:02;99430.44;;;15.66;82.58
19114;BME280;9689;51.052;13.772;2023-08-30T19:41:03;99423.16;;;15.53;83.37
19114;BME280;9689;51.052;13.772;2023-08-30T19:46:04;99429.69;;;15.46;83.50
19114;BME280;9689;51.052;13.772;2023-08-30T19:51:08;99423.00;;;15.41;84.16
19114;BME280;9689;51.052;13.772;2023-08-30T19:56:09;99423.22;;;15.36;83.86
19114;BME280;9689;51.052;13.772;2023-08-30T20:01:11;99437.19;;;15.37;83.72
19114;BME280;9689;51.052;13.772;2023-08-30T20:06:16;99438.91;;;15.38;83.95
19114;BME280;9689;51.052;13.772;2023-08-30T20:11:17;99433.72;;;15.36;83.87
19114;BME280;9689;51.052;13.772;2023-08-30T20:16:18;99443.47;;;15.34;84.12
19114;BME280;9689;51.052;13.772;2023-08-30T20:21:20;99443.56;;;15.33;83.79
19114;BME280;9689;51.052;13.772;2023-08-30T20:26:21;99440.09;;;15.32;83.97
19114;BME280;9689;51.052;13.772;2023-08-30T20:31:22;99438.13;;;15.36;82.80
19114;BME280;9689;51.052;13.772;2023-08-30T20:36:24;99431.72;;;15.41;81.86
19114;BME280;9689;51.052;13.772;2023-08-30T20:41:38;99437.91;;;15.40;80.79
19114;BME280;9689;51.052;13.772;2023-08-30T20:46:39;99434.97;;;15.46;81.07
19114;BME280;9689;51.052;13.772;2023-08-30T20:51:41;99426.06;;;15.49;80.64
19114;BME280;9689;51.052;13.772;2023-08-30T20:56:42;99435.19;;;15.42;80.58
19114;BME280;9689;51.052;13.772;2023-08-30T21:01:43;99432.13;;;15.34;80.29
19114;BME280;9689;51.052;13.772;2023-08-30T21:06:45;99443.38;;;15.36;79.90
19114;BME280;9689;51.052;13.772;2023-08-30T21:11:46;99437.00;;;15.24;79.83
19114;BME280;9689;51.052;13.772;2023-08-30T21:16:47;99435.41;;;15.21;79.97
19114;BME280;9689;51.052;13.772;2023-08-30T21:21:49;99444.63;;;15.13;80.13
19114;BME280;9689;51.052;13.772;2023-08-30T21:26:50;99441.16;;;15.12;80.88
19114;BME280;9689;51.052;13.772;2023-08-30T21:31:50;99445.53;;;15.12;80.08
19114;BME280;9689;51.052;13.772;2023-08-30T21:36:53;99441.16;;;15.12;80.34
19114;BME280;9689;51.052;13.772;2023-08-30T21:41:54;99434.25;;;15.10;80.75
19114;BME280;9689;51.052;13.772;2023-08-30T21:46:55;99430.78;;;15.09;80.84
19114;BME280;9689;51.052;13.772;2023-08-30T21:51:57;99427.56;;;15.04;81.18
19114;BME280;9689;51.052;13.772;2023-08-30T21:56:58;99432.81;;;15.04;81.15
19114;BME280;9689;51.052;13.772;2023-08-30T22:02:00;99433.13;;;14.98;81.24
19114;BME280;9689;51.052;13.772;2023-08-30T22:07:03;99428.09;;;14.93;81.19
19114;BME280;9689;51.052;13.772;2023-08-30T22:12:06;99428.97;;;14.94;80.26
19114;BME280;9689;51.052;13.772;2023-08-30T22:17:07;99422.50;;;14.84;80.15
19114;BME280;9689;51.052;13.772;2023-08-30T22:22:09;99422.03;;;14.76;80.46
19114;BME280;9689;51.052;13.772;2023-08-30T22:27:10;99409.25;;;14.69;80.24
19114;BME280;9689;51.052;13.772;2023-08-30T22:32:11;99418.06;;;14.68;79.87
19114;BME280;9689;51.052;13.772;2023-08-30T22:37:13;99417.50;;;14.62;80.52
19114;BME280;9689;51.052;13.772;2023-08-30T22:42:14;99419.81;;;14.51;81.08
19114;BME280;9689;51.052;13.772;2023-08-30T22:47:15;99417.97;;;14.53;80.96
19114;BME280;9689;51.052;13.772;2023-08-30T22:52:17;99417.44;;;14.46;80.90
19114;BME280;9689;51.052;13.772;2023-08-30T22:57:18;99418.41;;;14.43;81.38
19114;BME280;9689;51.052;13.772;2023-08-30T23:02:19;99410.75;;;14.39;81.50
19114;BME280;9689;51.052;13.772;2023-08-30T23:07:21;99412.63;;;14.37;81.37
19114;BME280;9689;51.052;13.772;2023-08-30T23:12:21;99408.59;;;14.30;82.12
19114;BME280;9689;51.052;13.772;2023-08-30T23:17:22;99400.72;;;14.30;82.49
19114;BME280;9689;51.052;13.772;2023-08-30T23:22:25;99400.25;;;14.22;83.10
19114;BME280;9689;51.052;13.772;2023-08-30T23:27:25;99389.22;;;14.15;83.30
19114;BME280;9689;51.052;13.772;2023-08-30T23:32:26;99396.50;;;14.27;83.21
19114;BME280;9689;51.052;13.772;2023-08-30T23:37:28;99397.44;;;14.43;82.80
19114;BME280;9689;51.052;13.772;2023-08-30T23:42:29;99395.91;;;14.57;81.58
19114;BME280;9689;51.052;13.772;2023-08-30T23:47:30;99396.53;;;14.62;81.58
19114;BME280;9689;51.052;13.772;2023-08-30T23:52:33;99396.81;;;14.73;80.50
19114;BME280;9689;51.052;13.772;2023-08-30T23:57:34;99404.31;;;14.81;80.22
